createdAt,value
2019-06-26T00:01:55.599Z,101829.48
2019-06-26T00:04:27.443Z,101828.75
2019-06-26T00:06:59.381Z,101828.85
2019-06-26T00:09:31.216Z,101828.00
2019-06-26T00:12:04.624Z,101832.80
2019-06-26T00:14:38.721Z,101840.56
2019-06-26T00:17:10.026Z,101838.66
2019-06-26T00:19:41.846Z,101840.59
2019-06-26T00:22:13.691Z,101842.50
2019-06-26T00:24:45.622Z,101845.91
2019-06-26T00:27:17.560Z,101837.41
2019-06-26T00:29:49.466Z,101841.75
2019-06-26T00:32:21.279Z,101847.59
2019-06-26T00:34:54.124Z,101841.08
2019-06-26T00:37:26.053Z,101842.88
2019-06-26T00:39:57.897Z,101845.44
2019-06-26T00:42:30.213Z,101847.46
2019-06-26T00:45:02.131Z,101845.45
2019-06-26T00:47:34.111Z,101846.72
2019-06-26T00:50:09.134Z,101842.88
2019-06-26T00:52:41.096Z,101842.89
2019-06-26T00:55:12.926Z,101848.19
2019-06-26T00:57:44.880Z,101843.80
2019-06-26T01:00:16.793Z,101844.77
2019-06-26T01:02:48.779Z,101849.63
2019-06-26T01:05:20.596Z,101846.86
2019-06-26T01:07:52.560Z,101848.24
2019-06-26T01:10:24.456Z,101848.13
2019-06-26T01:12:56.403Z,101841.52
2019-06-26T01:15:28.220Z,101847.56
2019-06-26T01:18:00.160Z,101854.35
2019-06-26T01:20:31.987Z,101847.97
2019-06-26T01:23:03.868Z,101848.19
2019-06-26T01:25:35.861Z,101848.59
2019-06-26T01:28:07.719Z,101853.10
2019-06-26T01:30:39.758Z,101857.25
2019-06-26T01:33:11.717Z,101854.99
2019-06-26T01:35:45.623Z,101857.83
2019-06-26T01:38:17.569Z,101862.35
2019-06-26T01:40:49.477Z,101862.45
2019-06-26T01:43:21.348Z,101853.09
2019-06-26T01:45:53.290Z,101861.88
2019-06-26T01:48:25.206Z,101857.83
2019-06-26T01:50:57.037Z,101863.02
2019-06-26T01:53:29.168Z,101865.13
2019-06-26T01:56:01.302Z,101864.22
2019-06-26T01:58:33.373Z,101862.84
2019-06-26T02:01:05.410Z,101866.34
2019-06-26T02:03:37.483Z,101864.43
2019-06-26T02:06:09.492Z,101863.97
2019-06-26T02:08:41.471Z,101860.91
2019-06-26T02:11:13.508Z,101864.65
2019-06-26T02:13:45.485Z,101865.17
2019-06-26T02:16:17.460Z,101862.41
2019-06-26T02:18:51.186Z,101865.31
2019-06-26T02:21:23.209Z,101863.30
2019-06-26T02:23:55.278Z,101865.66
2019-06-26T02:26:27.339Z,101862.09
2019-06-26T02:28:59.488Z,101862.73
2019-06-26T02:31:31.424Z,101861.66
2019-06-26T02:34:03.573Z,101866.35
2019-06-26T02:36:35.680Z,101868.89
2019-06-26T02:39:07.833Z,101873.48
2019-06-26T02:41:39.938Z,101866.83
2019-06-26T02:44:12.106Z,101872.83
2019-06-26T02:46:44.217Z,101871.58
2019-06-26T02:49:16.352Z,101871.55
2019-06-26T02:51:48.273Z,101871.80
2019-06-26T02:54:20.196Z,101868.33
2019-06-26T02:56:52.016Z,101864.00
2019-06-26T02:59:23.827Z,101870.08
2019-06-26T03:01:55.710Z,101870.85
2019-06-26T03:04:27.698Z,101864.04
2019-06-26T03:06:59.615Z,101871.86
2019-06-26T03:09:31.557Z,101874.20
2019-06-26T03:12:03.457Z,101873.34
2019-06-26T03:14:35.317Z,101872.28
2019-06-26T03:17:07.248Z,101867.39
2019-06-26T03:19:39.097Z,101867.44
2019-06-26T03:22:10.935Z,101874.77
2019-06-26T03:24:42.887Z,101875.73
2019-06-26T03:27:14.705Z,101879.75
2019-06-26T03:29:46.869Z,101883.28
2019-06-26T03:32:18.653Z,101875.98
2019-06-26T03:34:50.524Z,101878.29
2019-06-26T03:37:23.395Z,101884.12
2019-06-26T03:39:55.363Z,101885.27
2019-06-26T03:42:27.287Z,101882.05
2019-06-26T03:44:59.244Z,101881.80
2019-06-26T03:47:31.146Z,101878.22
2019-06-26T03:50:03.697Z,101878.22
2019-06-26T03:52:35.593Z,101873.38
2019-06-26T03:55:07.540Z,101870.07
2019-06-26T03:57:39.552Z,101874.70
2019-06-26T04:00:12.545Z,101871.73
2019-06-26T04:02:44.489Z,101870.17
2019-06-26T04:05:16.581Z,101876.41
2019-06-26T04:07:48.471Z,101881.00
2019-06-26T04:10:20.343Z,101877.87
2019-06-26T04:12:52.320Z,101878.59
2019-06-26T04:15:37.583Z,101874.47
2019-06-26T04:17:57.956Z,101878.88
2019-06-26T04:20:30.001Z,101878.73
2019-06-26T04:23:01.832Z,101874.55
2019-06-26T04:25:33.779Z,101870.15
2019-06-26T04:28:06.526Z,101873.57
2019-06-26T04:30:39.711Z,101873.41
2019-06-26T04:33:11.605Z,101871.80
2019-06-26T04:35:43.454Z,101883.31
2019-06-26T04:38:16.469Z,101875.97
2019-06-26T04:40:48.412Z,101883.85
2019-06-26T04:43:20.328Z,101879.76
2019-06-26T04:45:57.989Z,101885.89
2019-06-26T04:48:25.962Z,101877.45
2019-06-26T04:50:57.853Z,101888.72
2019-06-26T04:53:29.774Z,101891.67
2019-06-26T04:56:01.714Z,101892.33
2019-06-26T04:58:33.617Z,101891.27
2019-06-26T05:01:05.553Z,101880.09
2019-06-26T05:03:37.436Z,101890.47
2019-06-26T05:06:09.383Z,101891.55
2019-06-26T05:08:41.342Z,101898.00
2019-06-26T05:11:13.302Z,101898.13
2019-06-26T05:13:45.229Z,101900.63
2019-06-26T05:16:20.296Z,101906.63
2019-06-26T05:18:50.787Z,101898.55
2019-06-26T05:21:22.750Z,101900.77
2019-06-26T05:23:54.744Z,101897.27
2019-06-26T05:26:26.753Z,101899.23
2019-06-26T05:28:58.638Z,101900.91
2019-06-26T05:31:30.674Z,101902.56
2019-06-26T05:34:02.754Z,101901.38
2019-06-26T05:36:34.708Z,101901.72
2019-06-26T05:39:07.701Z,101899.78
2019-06-26T05:41:39.636Z,101899.40
2019-06-26T05:44:11.551Z,101893.51
2019-06-26T05:46:43.667Z,101891.63
2019-06-26T05:49:15.561Z,101892.00
2019-06-26T05:51:47.558Z,101889.40
2019-06-26T05:54:20.480Z,101885.69
2019-06-26T05:56:53.449Z,101891.56
2019-06-26T05:59:25.463Z,101890.66
2019-06-26T06:01:57.491Z,101885.17
2019-06-26T06:04:29.427Z,101884.75
2019-06-26T06:07:01.372Z,101881.13
2019-06-26T06:09:33.319Z,101886.61
2019-06-26T06:12:05.285Z,101888.44
2019-06-26T06:14:37.254Z,101891.39
2019-06-26T06:17:09.191Z,101885.34
2019-06-26T06:19:41.111Z,101886.86
2019-06-26T06:22:13.068Z,101897.41
2019-06-26T06:24:45.106Z,101889.20
2019-06-26T06:27:17.106Z,101887.58
2019-06-26T06:29:49.023Z,101883.86
2019-06-26T06:32:22.157Z,101885.30
2019-06-26T06:34:56.124Z,101877.27
2019-06-26T06:37:28.103Z,101880.00
2019-06-26T06:40:00.974Z,101881.75
2019-06-26T06:45:37.053Z,101881.34
2019-06-26T06:48:09.182Z,101878.55
2019-06-26T06:50:44.165Z,101876.63
2019-06-26T06:53:17.392Z,101872.91
2019-06-26T06:55:52.072Z,101875.98
2019-06-26T06:58:24.189Z,101867.69
2019-06-26T07:00:56.266Z,101868.48
2019-06-26T07:03:30.808Z,101866.83
2019-06-26T07:09:36.980Z,101871.81
2019-06-26T07:12:20.995Z,101881.03
2019-06-26T07:14:55.913Z,101876.02
2019-06-26T07:17:44.594Z,101876.45
2019-06-26T07:20:16.538Z,101858.38
2019-06-26T07:22:54.937Z,101870.30
2019-06-26T07:25:36.229Z,101864.13
2019-06-26T07:28:09.294Z,101855.23
2019-06-26T07:30:42.439Z,101858.19
2019-06-26T07:58:46.727Z,101857.72
2019-06-26T08:01:19.694Z,101860.30
2019-06-26T08:03:53.329Z,101861.70
2019-06-26T08:06:50.581Z,101859.97
2019-06-26T08:09:22.549Z,101854.44
2019-06-26T08:11:57.762Z,101848.95
2019-06-26T08:14:33.261Z,101859.54
2019-06-26T08:17:05.357Z,101857.40
2019-06-26T08:19:40.349Z,101845.87
2019-06-26T08:22:26.136Z,101849.23
2019-06-26T08:28:19.387Z,101845.39
2019-06-26T08:31:09.115Z,101849.41
2019-06-26T08:33:41.054Z,101852.98
2019-06-26T08:36:13.009Z,101848.77
2019-06-26T08:38:44.921Z,101850.02
2019-06-26T08:41:16.819Z,101841.03
2019-06-26T08:43:48.726Z,101838.46
2019-06-26T08:46:20.620Z,101834.18
2019-06-26T08:48:52.454Z,101838.72
2019-06-26T08:51:24.393Z,101830.20
2019-06-26T08:53:56.316Z,101833.84
2019-06-26T08:56:28.340Z,101822.44
2019-06-26T08:59:00.354Z,101816.30
2019-06-26T09:01:32.288Z,101816.61
2019-06-26T09:04:04.281Z,101821.87
2019-06-26T09:06:36.102Z,101816.30
2019-06-26T09:09:08.064Z,101813.52
2019-06-26T09:11:39.992Z,101802.05
2019-06-26T09:14:11.887Z,101804.03
2019-06-26T09:16:43.802Z,101809.05
2019-06-26T09:19:15.702Z,101812.32
2019-06-26T09:21:47.569Z,101800.14
2019-06-26T09:24:19.539Z,101800.40
2019-06-26T09:26:51.407Z,101801.30
2019-06-26T09:29:24.111Z,101798.73
2019-06-26T09:31:56.205Z,101786.45
2019-06-26T09:34:28.131Z,101779.76
2019-06-26T09:37:00.040Z,101785.93
2019-06-26T09:39:31.931Z,101775.76
2019-06-26T09:42:03.835Z,101783.14
2019-06-26T09:44:35.769Z,101782.81
2019-06-26T09:47:07.765Z,101786.13
2019-06-26T09:49:39.668Z,101775.53
2019-06-26T09:52:11.561Z,101779.42
2019-06-26T09:54:43.413Z,101783.06
2019-06-26T09:57:15.317Z,101773.56
2019-06-26T09:59:47.261Z,101777.01
2019-06-26T10:02:19.179Z,101771.12
2019-06-26T10:04:50.977Z,101769.72
2019-06-26T10:07:22.839Z,101769.51
2019-06-26T10:09:54.751Z,101764.16
2019-06-26T10:12:26.634Z,101766.41
2019-06-26T10:14:58.551Z,101766.96
2019-06-26T10:17:30.452Z,101764.47
2019-06-26T10:20:02.414Z,101763.06
2019-06-26T10:22:34.251Z,101758.56
2019-06-26T10:25:10.923Z,101747.39
2019-06-26T10:27:40.587Z,101768.97
2019-06-26T10:30:12.507Z,101755.75
2019-06-26T10:32:44.417Z,101747.39
2019-06-26T10:35:16.317Z,101752.47
2019-06-26T10:37:48.214Z,101747.16
2019-06-26T10:40:20.138Z,101746.30
2019-06-26T10:42:52.077Z,101747.15
2019-06-26T10:45:23.926Z,101735.07
2019-06-26T10:47:55.750Z,101727.20
2019-06-26T10:50:27.591Z,101716.52
2019-06-26T10:52:59.520Z,101716.52
2019-06-26T10:55:31.439Z,101724.39
2019-06-26T10:58:03.425Z,101733.97
2019-06-26T11:00:35.357Z,101727.22
2019-06-26T11:03:07.233Z,101735.09
2019-06-26T11:05:39.137Z,101727.77
2019-06-26T11:08:11.045Z,101728.62
2019-06-26T11:10:42.955Z,101730.58
2019-06-26T11:13:14.861Z,101720.20
2019-06-26T11:15:46.764Z,101712.33
2019-06-26T11:18:19.659Z,101715.72
2019-06-26T11:20:51.580Z,101705.89
2019-06-26T11:23:23.500Z,101702.50
2019-06-26T11:25:55.526Z,101702.50
2019-06-26T11:28:27.403Z,101704.20
2019-06-26T11:30:59.396Z,101708.41
2019-06-26T11:33:31.402Z,101721.04
2019-06-26T11:36:03.253Z,101695.77
2019-06-26T11:38:35.303Z,101680.31
2019-06-26T11:41:07.226Z,101680.31
2019-06-26T11:43:39.165Z,101684.22
2019-06-26T11:46:11.057Z,101678.03
2019-06-26T11:48:43.046Z,101683.12
2019-06-26T11:51:14.952Z,101674.69
2019-06-26T11:53:46.858Z,101669.91
2019-06-26T11:56:18.777Z,101678.89
2019-06-26T11:58:50.678Z,101660.61
2019-06-26T12:01:22.793Z,101660.61
2019-06-26T12:03:54.737Z,101664.52
2019-06-26T12:06:26.641Z,101668.70
2019-06-26T12:08:58.573Z,101670.14
2019-06-26T12:11:30.422Z,101657.77
2019-06-26T12:14:03.453Z,101655.51
2019-06-26T12:16:35.358Z,101665.41
2019-06-26T12:19:23.802Z,101665.41
2019-06-26T12:21:55.741Z,101660.05
2019-06-26T12:24:27.603Z,101660.86
2019-06-26T12:26:59.527Z,101643.11
2019-06-26T12:29:48.037Z,101625.11
2019-06-26T12:32:42.119Z,101625.11
2019-06-26T12:35:10.175Z,101628.45
2019-06-26T12:37:42.097Z,101627.58
2019-06-26T12:40:31.493Z,101627.58
2019-06-26T12:43:19.950Z,101619.19
2019-06-26T12:45:51.847Z,101609.03
2019-06-26T12:48:40.264Z,101609.81
2019-06-26T12:51:28.494Z,101616.83
2019-06-26T12:54:16.819Z,101604.75
2019-06-26T12:56:48.765Z,101612.69
2019-06-26T12:59:37.314Z,101610.43
2019-06-26T13:02:25.464Z,101601.16
2019-06-26T13:05:00.443Z,101594.43
2019-06-26T13:07:32.311Z,101601.19
2019-06-26T13:10:07.468Z,101594.38
2019-06-26T13:12:40.552Z,101599.13
2019-06-26T13:15:12.390Z,101594.63
2019-06-26T13:17:44.372Z,101576.88
2019-06-26T13:20:17.295Z,101576.88
2019-06-26T13:22:49.273Z,101579.63
2019-06-26T13:25:21.119Z,101583.27
2019-06-26T13:27:53.012Z,101576.73
2019-06-26T13:30:36.845Z,101574.86
2019-06-26T13:33:09.774Z,101572.05
2019-06-26T13:35:41.611Z,101564.25
2019-06-26T13:38:13.419Z,101565.83
2019-06-26T13:40:45.269Z,101560.90
2019-06-26T13:43:18.167Z,101555.73
2019-06-26T13:45:50.054Z,101555.23
2019-06-26T13:48:21.924Z,101538.48
2019-06-26T13:51:08.073Z,101538.48
2019-06-26T13:53:27.506Z,101543.45
2019-06-26T13:55:59.432Z,101544.88
2019-06-26T13:58:31.338Z,101546.34
2019-06-26T14:01:03.265Z,101538.31
2019-06-26T14:03:35.196Z,101529.73
2019-06-26T14:06:07.102Z,101528.48
2019-06-26T14:08:38.927Z,101527.53
2019-06-26T14:11:10.774Z,101518.89
2019-06-26T14:13:42.654Z,101505.61
2019-06-26T14:16:14.479Z,101508.71
2019-06-26T14:18:46.382Z,101512.30
2019-06-26T14:21:25.672Z,101521.37
2019-06-26T14:23:51.907Z,101508.21
2019-06-26T14:26:23.752Z,101500.33
2019-06-26T14:28:55.675Z,101500.33
2019-06-26T14:31:27.505Z,101494.06
2019-06-26T14:33:59.412Z,101496.07
2019-06-26T14:36:31.270Z,101489.47
2019-06-26T14:39:04.659Z,101485.25
2019-06-26T14:41:39.215Z,101490.00
2019-06-26T14:44:11.276Z,101483.25
2019-06-26T14:46:43.197Z,101483.48
2019-06-26T14:49:15.018Z,101487.64
2019-06-26T14:51:47.891Z,101480.69
2019-06-26T14:54:19.997Z,101475.28
2019-06-26T14:56:51.837Z,101473.00
2019-06-26T14:59:23.709Z,101473.99
2019-06-26T15:01:55.556Z,101471.25
2019-06-26T15:04:27.399Z,101478.30
2019-06-26T15:06:59.328Z,101473.99
2019-06-26T15:09:31.229Z,101476.42
2019-06-26T15:12:03.149Z,101464.51
2019-06-26T15:14:35.146Z,101469.27
2019-06-26T15:17:07.061Z,101469.12
2019-06-26T15:19:38.929Z,101470.98
2019-06-26T15:22:10.807Z,101466.39
2019-06-26T15:24:42.752Z,101461.66
2019-06-26T15:27:14.697Z,101457.04
2019-06-26T15:29:46.656Z,101453.73
2019-06-26T15:32:18.546Z,101446.64
2019-06-26T15:34:50.544Z,101453.86
2019-06-26T15:37:22.466Z,101459.28
2019-06-26T15:39:54.308Z,101458.93
2019-06-26T15:42:26.240Z,101453.38
2019-06-26T15:44:58.136Z,101444.25
2019-06-26T15:47:29.928Z,101447.31
2019-06-26T15:50:01.918Z,101446.67
2019-06-26T15:52:33.839Z,101446.67
2019-06-26T15:55:07.267Z,101437.97
2019-06-26T15:57:39.121Z,101442.73
2019-06-26T16:00:11.010Z,101440.55
2019-06-26T16:02:42.828Z,101437.17
2019-06-26T16:05:16.586Z,101432.37
2019-06-26T16:07:48.491Z,101431.01
2019-06-26T16:10:20.416Z,101427.63
2019-06-26T16:12:52.336Z,101427.40
2019-06-26T16:15:24.327Z,101422.67
2019-06-26T16:18:06.885Z,101421.16
2019-06-26T16:20:38.808Z,101431.09
2019-06-26T16:23:10.730Z,101425.47
2019-06-26T16:25:42.721Z,101422.70
2019-06-26T16:28:14.643Z,101415.22
2019-06-26T16:30:46.645Z,101415.22
2019-06-26T16:33:18.396Z,101425.90
2019-06-26T16:35:50.326Z,101425.90
2019-06-26T16:38:22.170Z,101421.39
2019-06-26T16:40:54.155Z,101420.28
2019-06-26T16:43:26.069Z,101417.00
2019-06-26T16:45:57.958Z,101421.31
2019-06-26T16:48:29.918Z,101416.66
2019-06-26T16:51:01.833Z,101420.60
2019-06-26T16:53:35.551Z,101406.95
2019-06-26T16:56:07.391Z,101415.64
2019-06-26T16:58:39.296Z,101415.64
2019-06-26T17:01:11.234Z,101417.59
2019-06-26T17:03:43.148Z,101413.70
2019-06-26T17:06:16.155Z,101410.56
2019-06-26T17:08:48.036Z,101411.70
2019-06-26T17:11:19.969Z,101410.24
2019-06-26T17:13:51.799Z,101408.30
2019-06-26T17:16:25.252Z,101405.78
2019-06-26T17:18:57.199Z,101406.66
2019-06-26T17:21:29.028Z,101403.31
2019-06-26T17:24:00.907Z,101407.25
2019-06-26T17:26:34.540Z,101402.22
2019-06-26T17:29:07.461Z,101406.47
2019-06-26T17:31:39.346Z,101410.42
2019-06-26T17:34:11.361Z,101399.19
2019-06-26T17:36:43.302Z,101407.30
2019-06-26T17:39:15.250Z,101407.23
2019-06-26T17:41:47.166Z,101405.20
2019-06-26T17:44:19.114Z,101404.27
2019-06-26T17:46:51.007Z,101396.62
2019-06-26T17:49:22.962Z,101408.27
2019-06-26T17:51:54.968Z,101402.28
2019-06-26T17:54:26.917Z,101406.13
2019-06-26T17:56:58.927Z,101405.67
2019-06-26T17:59:30.959Z,101404.17
2019-06-26T18:02:02.985Z,101406.81
2019-06-26T18:04:34.995Z,101402.69
2019-06-26T18:07:07.020Z,101403.37
2019-06-26T18:09:39.034Z,101405.95
2019-06-26T18:12:11.049Z,101406.11
2019-06-26T18:14:43.477Z,101409.63
2019-06-26T18:17:22.148Z,101405.05
2019-06-26T18:19:49.108Z,101400.70
2019-06-26T18:22:21.003Z,101398.84
2019-06-26T18:24:53.005Z,101405.12
2019-06-26T18:27:25.063Z,101403.53
2019-06-26T18:29:56.994Z,101400.32
2019-06-26T18:32:28.987Z,101404.08
2019-06-26T18:35:01.118Z,101398.42
2019-06-26T18:37:33.057Z,101398.86
2019-06-26T18:40:06.347Z,101405.36
2019-06-26T18:42:38.709Z,101400.32
2019-06-26T18:45:10.594Z,101401.32
2019-06-26T18:47:42.625Z,101396.67
2019-06-26T18:50:14.487Z,101392.17
2019-06-26T18:52:46.515Z,101392.85
2019-06-26T18:55:18.511Z,101388.19
2019-06-26T18:57:50.421Z,101390.08
2019-06-26T19:00:22.443Z,101384.14
2019-06-26T19:02:54.478Z,101391.47
2019-06-26T19:05:27.329Z,101382.94
2019-06-26T19:07:59.457Z,101382.84
2019-06-26T19:10:31.344Z,101381.05
2019-06-26T19:13:03.195Z,101388.39
2019-06-26T19:15:35.218Z,101385.91
2019-06-26T19:18:07.139Z,101376.37
2019-06-26T19:20:38.986Z,101375.38
2019-06-26T19:23:11.013Z,101377.77
2019-06-26T19:25:43.141Z,101374.09
2019-06-26T19:28:14.974Z,101375.81
2019-06-26T19:30:46.871Z,101375.23
2019-06-26T19:33:18.810Z,101373.05
2019-06-26T19:35:50.737Z,101376.14
2019-06-26T19:38:22.858Z,101373.91
2019-06-26T19:40:54.724Z,101377.75
2019-06-26T19:43:26.643Z,101377.77
2019-06-26T19:45:58.543Z,101375.14
2019-06-26T19:48:30.381Z,101371.33
2019-06-26T19:51:02.370Z,101369.63
2019-06-26T19:53:34.275Z,101375.27
2019-06-26T19:56:06.205Z,101375.40
2019-06-26T19:58:38.075Z,101383.23
2019-06-26T20:01:09.990Z,101376.61
2019-06-26T20:03:41.999Z,101372.31
2019-06-26T20:06:13.902Z,101372.53
2019-06-26T20:08:54.454Z,101375.25
2019-06-26T20:11:19.488Z,101376.88
2019-06-26T20:13:51.417Z,101374.39
2019-06-26T20:16:23.280Z,101376.69
2019-06-26T20:18:55.092Z,101375.19
2019-06-26T20:21:27.091Z,101368.84
2019-06-26T20:24:00.035Z,101367.45
2019-06-26T20:26:32.038Z,101362.04
2019-06-26T20:29:03.964Z,101364.21
2019-06-26T20:31:37.085Z,101360.47
2019-06-26T20:34:09.085Z,101359.91
2019-06-26T20:36:41.112Z,101360.06
2019-06-26T20:39:13.126Z,101363.31
2019-06-26T20:41:45.025Z,101358.80
2019-06-26T20:44:17.045Z,101358.55
2019-06-26T20:46:48.973Z,101355.78
2019-06-26T20:49:20.892Z,101352.59
2019-06-26T20:51:52.802Z,101356.03
2019-06-26T20:54:26.146Z,101359.37
2019-06-26T20:56:57.970Z,101352.84
2019-06-26T20:59:29.912Z,101347.02
2019-06-26T21:02:01.936Z,101351.84
2019-06-26T21:04:33.877Z,101348.11
2019-06-26T21:07:05.873Z,101349.81
2019-06-26T21:09:37.797Z,101346.89
2019-06-26T21:12:09.765Z,101346.40
2019-06-26T21:14:41.783Z,101347.95
2019-06-26T21:17:13.684Z,101343.33
2019-06-26T21:19:45.607Z,101342.36
2019-06-26T21:22:17.443Z,101341.27
2019-06-26T21:24:49.465Z,101344.12
2019-06-26T21:27:21.365Z,101342.74
2019-06-26T21:29:53.320Z,101344.34
2019-06-26T21:32:25.244Z,101342.62
2019-06-26T21:34:57.215Z,101341.64
2019-06-26T21:37:29.225Z,101337.86
2019-06-26T21:40:01.167Z,101340.17
2019-06-26T21:42:33.175Z,101339.42
2019-06-26T21:45:05.976Z,101342.30
2019-06-26T21:47:37.796Z,101343.38
2019-06-26T21:50:09.704Z,101332.60
2019-06-26T21:52:41.619Z,101328.69
2019-06-26T21:55:13.639Z,101329.43
2019-06-26T21:58:03.419Z,101329.52
2019-06-26T22:00:53.118Z,101328.13
2019-06-26T22:03:42.686Z,101322.42
2019-06-26T22:06:22.076Z,101319.58
2019-06-26T22:09:07.294Z,101318.88
2019-06-26T22:11:40.721Z,101314.86
2019-06-26T22:14:12.778Z,101314.41
